createdAt,value
2022-08-18T00:00:52.774Z,8.10
2022-08-18T00:01:52.853Z,8.60
2022-08-18T00:02:58.078Z,7.90
2022-08-18T00:03:59.369Z,9.80
2022-08-18T00:04:57.053Z,10.00
2022-08-18T00:05:52.736Z,9.10
2022-08-18T00:06:52.728Z,7.70
2022-08-18T00:07:52.724Z,9.10
2022-08-18T00:08:52.971Z,9.10
2022-08-18T00:09:52.714Z,9.00
2022-08-18T00:10:52.705Z,8.20
2022-08-18T00:11:52.691Z,8.60
2022-08-18T00:12:56.156Z,11.90
2022-08-18T00:13:53.749Z,8.70
2022-08-18T00:14:52.660Z,8.00
2022-08-18T00:15:52.650Z,10.90
2022-08-18T00:16:52.746Z,8.10
2022-08-18T00:17:52.663Z,7.80
2022-08-18T00:18:52.640Z,9.20
2022-08-18T00:19:52.653Z,7.20
2022-08-18T00:20:52.630Z,9.40
2022-08-18T00:21:52.628Z,7.60
2022-08-18T00:22:52.799Z,7.60
2022-08-18T00:23:52.599Z,7.40
2022-08-18T00:24:52.622Z,9.00
2022-08-18T00:25:52.604Z,8.80
2022-08-18T00:26:52.590Z,7.90
2022-08-18T00:27:52.561Z,7.60
2022-08-18T00:28:52.554Z,7.70
2022-08-18T00:29:52.572Z,7.60
2022-08-18T00:30:53.935Z,7.90
2022-08-18T00:31:52.545Z,8.30
2022-08-18T00:32:52.666Z,8.10
2022-08-18T00:33:52.538Z,6.80
2022-08-18T00:34:52.542Z,9.70
2022-08-18T00:35:52.518Z,8.20
2022-08-18T00:36:52.502Z,8.40
2022-08-18T00:37:52.738Z,9.50
2022-08-18T00:38:52.501Z,8.80
2022-08-18T00:39:52.575Z,8.80
2022-08-18T00:40:52.473Z,9.30
2022-08-18T00:41:52.507Z,7.70
2022-08-18T00:42:52.832Z,8.80
2022-08-18T00:43:52.470Z,6.80
2022-08-18T00:44:52.453Z,7.10
2022-08-18T00:45:52.468Z,7.20
2022-08-18T00:46:52.423Z,7.00
2022-08-18T00:47:52.635Z,6.70
2022-08-18T00:48:52.413Z,7.70
2022-08-18T00:49:52.434Z,7.50
2022-08-18T00:50:52.414Z,9.70
2022-08-18T00:51:52.448Z,8.70
2022-08-18T00:52:52.386Z,9.70
2022-08-18T00:53:52.383Z,7.60
2022-08-18T00:54:52.381Z,8.10
2022-08-18T00:55:53.733Z,8.90
2022-08-18T00:56:52.380Z,8.00
2022-08-18T00:57:52.595Z,7.10
2022-08-18T00:58:52.347Z,9.10
2022-08-18T00:59:52.396Z,8.50
2022-08-18T01:00:52.379Z,6.70
2022-08-18T01:01:52.337Z,7.00
2022-08-18T01:02:52.332Z,7.40
2022-08-18T01:03:52.341Z,8.70
2022-08-18T01:04:52.301Z,8.00
2022-08-18T01:05:52.294Z,7.10
2022-08-18T01:06:52.274Z,8.60
2022-08-18T01:07:52.457Z,7.00
2022-08-18T01:08:52.299Z,8.90
2022-08-18T01:09:52.278Z,9.60
2022-08-18T01:10:52.261Z,11.30
2022-08-18T01:11:52.241Z,8.70
2022-08-18T01:12:52.259Z,8.40
2022-08-18T01:13:52.266Z,8.80
2022-08-18T01:14:52.225Z,7.70
2022-08-18T01:15:52.247Z,8.90
2022-08-18T01:16:57.594Z,7.10
2022-08-18T01:17:53.289Z,7.10
2022-08-18T01:18:52.210Z,8.80
2022-08-18T01:19:52.194Z,10.50
2022-08-18T01:20:52.204Z,7.80
2022-08-18T01:21:52.335Z,9.10
2022-08-18T01:22:52.172Z,11.90
2022-08-18T01:23:52.197Z,8.00
2022-08-18T01:24:52.167Z,7.60
2022-08-18T01:25:52.163Z,7.50
2022-08-18T01:26:52.172Z,9.90
2022-08-18T01:27:52.390Z,8.90
2022-08-18T01:28:52.111Z,7.50
2022-08-18T01:29:52.115Z,7.90
2022-08-18T01:30:52.115Z,9.30
2022-08-18T01:31:54.396Z,7.70
2022-08-18T01:32:52.125Z,10.30
2022-08-18T01:33:52.083Z,9.10
2022-08-18T01:34:52.110Z,8.10
2022-08-18T01:35:52.067Z,8.40
2022-08-18T01:36:52.066Z,8.10
2022-08-18T01:37:52.286Z,9.30
2022-08-18T01:38:52.063Z,7.90
2022-08-18T01:41:17.332Z,8.80
2022-08-18T01:41:24.228Z,11.40
2022-08-18T01:41:53.042Z,11.80
2022-08-18T01:42:52.052Z,10.60
2022-08-18T01:43:52.024Z,9.90
2022-08-18T01:44:52.021Z,9.30
2022-08-18T02:02:35.891Z,8.10
2022-08-18T02:03:35.696Z,9.10
2022-08-18T02:04:37.240Z,7.90
2022-08-18T02:05:35.667Z,8.30
2022-08-18T02:06:35.664Z,8.70
2022-08-18T02:07:36.422Z,9.30
2022-08-18T02:08:35.687Z,8.20
2022-08-18T02:09:36.842Z,7.70
2022-08-18T02:10:37.737Z,10.60
2022-08-18T02:11:36.861Z,8.00
2022-08-18T02:12:36.858Z,9.00
2022-08-18T02:13:36.834Z,11.40
2022-08-18T02:14:37.863Z,8.70
2022-08-18T02:15:36.825Z,8.40
2022-08-18T02:16:36.816Z,9.70
2022-08-18T02:17:36.780Z,11.20
2022-08-18T02:18:48.138Z,10.20
2022-08-18T02:19:37.729Z,10.50
2022-08-18T02:20:37.740Z,8.70
2022-08-18T02:21:36.741Z,9.60
2022-08-18T02:22:36.786Z,9.10
2022-08-18T02:23:36.758Z,9.20
2022-08-18T02:25:08.584Z,10.10
2022-08-18T02:25:36.636Z,8.10
2022-08-18T02:26:36.631Z,8.90
2022-08-18T02:27:36.724Z,8.70
2022-08-18T02:28:36.604Z,10.20
2022-08-18T02:29:36.606Z,13.50
2022-08-18T02:30:36.609Z,9.90
2022-08-18T02:31:36.571Z,10.80
2022-08-18T02:32:36.588Z,10.60
2022-08-18T02:33:36.581Z,12.60
2022-08-18T02:34:36.582Z,9.00
2022-08-18T02:35:36.574Z,15.40
2022-08-18T02:36:36.543Z,8.10
2022-08-18T02:37:36.540Z,9.20
2022-08-18T02:38:36.565Z,7.70
2022-08-18T02:39:36.573Z,9.70
2022-08-18T02:40:36.536Z,9.10
2022-08-18T02:41:36.592Z,8.80
2022-08-18T02:42:36.592Z,9.90
2022-08-18T02:43:37.809Z,7.50
2022-08-18T02:44:37.545Z,10.00
2022-08-18T02:45:36.486Z,7.80
2022-08-18T02:46:36.471Z,8.60
2022-08-18T02:47:36.517Z,8.00
2022-08-18T02:48:36.460Z,9.60
2022-08-18T02:49:36.452Z,10.50
2022-08-18T02:50:36.460Z,8.10
2022-08-18T02:51:36.435Z,8.20
2022-08-18T02:52:36.446Z,8.10
2022-08-18T02:53:36.444Z,9.60
2022-08-18T02:54:36.413Z,8.00
2022-08-18T02:55:36.411Z,11.40
2022-08-18T02:56:41.320Z,7.80
2022-08-18T02:57:37.388Z,10.10
2022-08-18T02:58:36.403Z,9.70
2022-08-18T02:59:36.377Z,9.60
2022-08-18T03:00:36.382Z,8.80
2022-08-18T03:01:36.412Z,8.50
2022-08-18T03:02:36.358Z,9.90
2022-08-18T03:03:36.347Z,8.80
2022-08-18T03:04:36.359Z,8.00
2022-08-18T03:05:36.404Z,7.20
2022-08-18T03:06:36.321Z,8.40
2022-08-18T03:07:36.397Z,9.80
2022-08-18T03:08:36.318Z,11.10
2022-08-18T03:09:36.389Z,9.90
2022-08-18T03:10:36.316Z,8.40
2022-08-18T03:11:36.296Z,9.70
2022-08-18T03:12:36.276Z,8.50
2022-08-18T03:13:36.264Z,9.70
2022-08-18T03:14:36.278Z,7.80
2022-08-18T03:15:36.285Z,10.50
2022-08-18T03:16:36.240Z,10.80
2022-08-18T03:17:36.268Z,13.80
2022-08-18T03:18:36.245Z,10.90
2022-08-18T03:19:36.241Z,10.90
2022-08-18T03:20:36.216Z,11.00
2022-08-18T03:21:36.209Z,12.10
2022-08-18T03:22:36.204Z,9.30
2022-08-18T03:23:36.199Z,8.70
2022-08-18T03:24:36.203Z,9.90
2022-08-18T03:25:36.912Z,10.20
2022-08-18T03:26:36.170Z,10.40
2022-08-18T03:27:36.158Z,11.50
2022-08-18T03:28:36.180Z,10.50
2022-08-18T03:29:36.770Z,11.00
2022-08-18T03:30:36.168Z,10.30
2022-08-18T03:31:36.153Z,12.30
2022-08-18T03:32:36.127Z,11.30
2022-08-18T03:33:36.123Z,9.80
2022-08-18T03:34:36.108Z,9.20
2022-08-18T03:35:36.113Z,11.40
2022-08-18T03:36:36.105Z,9.70
2022-08-18T03:37:36.119Z,14.20
2022-08-18T03:38:36.079Z,12.60
2022-08-18T03:39:36.096Z,14.50
2022-08-18T03:40:36.096Z,8.90
2022-08-18T03:41:56.943Z,13.40
2022-08-18T03:42:37.890Z,12.30
2022-08-18T03:43:51.049Z,12.80
2022-08-18T03:44:37.039Z,13.50
2022-08-18T03:45:36.051Z,10.20
2022-08-18T03:46:36.027Z,14.70
2022-08-18T04:02:02.934Z,11.30
2022-08-18T04:03:02.932Z,12.60
2022-08-18T04:04:02.918Z,11.70
2022-08-18T04:05:05.197Z,11.40
2022-08-18T04:06:04.094Z,11.10
2022-08-18T04:07:04.035Z,11.90
2022-08-18T04:08:04.036Z,10.50
2022-08-18T04:09:04.002Z,11.40
2022-08-18T04:10:04.002Z,12.20
2022-08-18T04:11:04.022Z,11.70
2022-08-18T04:12:04.001Z,12.40
2022-08-18T04:13:04.005Z,12.10
2022-08-18T04:14:03.965Z,12.70
2022-08-18T04:15:03.961Z,13.60
2022-08-18T04:16:03.957Z,13.70
2022-08-18T04:17:03.981Z,10.20
2022-08-18T04:18:04.392Z,12.50
2022-08-18T04:19:03.997Z,14.80
2022-08-18T04:20:03.917Z,10.80
2022-08-18T04:21:03.932Z,12.60
2022-08-18T04:22:03.921Z,13.00
2022-08-18T04:23:03.890Z,11.90
2022-08-18T04:24:03.881Z,12.20
2022-08-18T04:25:03.902Z,10.90
2022-08-18T04:26:03.882Z,14.30
2022-08-18T04:27:03.864Z,17.40
2022-08-18T04:28:03.879Z,13.10
2022-08-18T04:29:03.870Z,11.20
2022-08-18T04:30:04.573Z,12.90
2022-08-18T04:31:03.836Z,11.60
2022-08-18T04:32:04.842Z,13.20
2022-08-18T04:33:03.838Z,12.90
2022-08-18T04:34:03.846Z,12.60
2022-08-18T04:35:03.825Z,13.30
2022-08-18T04:36:03.800Z,13.70
2022-08-18T04:37:03.790Z,10.70
2022-08-18T04:38:03.790Z,10.60
2022-08-18T04:39:03.800Z,12.20
2022-08-18T04:40:03.822Z,11.80
2022-08-18T04:41:03.762Z,13.40
2022-08-18T04:42:03.757Z,11.50
2022-08-18T04:43:03.741Z,11.10
2022-08-18T04:44:03.734Z,12.50
2022-08-18T04:45:03.778Z,14.00
2022-08-18T04:46:03.735Z,12.40
2022-08-18T04:47:03.717Z,12.10
2022-08-18T04:48:03.710Z,11.50
2022-08-18T04:49:03.700Z,10.70
2022-08-18T04:50:03.726Z,12.10
2022-08-18T04:51:03.691Z,13.30
2022-08-18T04:52:34.278Z,14.70
2022-08-18T04:53:04.686Z,13.20
2022-08-18T04:54:03.657Z,12.80
2022-08-18T04:55:03.665Z,13.50
2022-08-18T04:56:03.656Z,10.70
2022-08-18T04:57:03.638Z,12.30
2022-08-18T04:58:03.699Z,12.90
2022-08-18T04:59:03.633Z,12.00
2022-08-18T05:00:04.575Z,15.00
2022-08-18T05:01:03.648Z,12.30
2022-08-18T05:02:03.632Z,15.80
2022-08-18T05:03:03.602Z,11.40
2022-08-18T05:04:03.593Z,12.00
2022-08-18T05:05:03.623Z,13.20
2022-08-18T05:06:03.583Z,12.20
2022-08-18T05:07:03.591Z,12.60
2022-08-18T05:08:03.565Z,11.50
2022-08-18T05:09:03.546Z,13.20
2022-08-18T05:10:04.554Z,10.80
2022-08-18T05:11:04.229Z,11.70
2022-08-18T05:12:04.537Z,13.00
2022-08-18T05:13:03.516Z,13.70
2022-08-18T05:14:03.536Z,11.80
2022-08-18T05:15:03.810Z,9.80
2022-08-18T05:16:18.205Z,12.70
2022-08-18T05:17:05.515Z,11.20
2022-08-18T05:18:03.502Z,12.50
2022-08-18T05:19:03.501Z,11.60
2022-08-18T05:20:03.462Z,10.80
2022-08-18T05:21:03.458Z,16.20
2022-08-18T05:22:03.478Z,9.90
2022-08-18T05:23:03.462Z,11.60
2022-08-18T05:24:03.439Z,11.20
2022-08-18T05:25:03.423Z,10.90
2022-08-18T05:26:03.431Z,14.60
2022-08-18T05:27:03.441Z,12.30
2022-08-18T05:28:03.418Z,14.20
2022-08-18T05:29:17.596Z,19.50
2022-08-18T05:30:04.416Z,18.10
2022-08-18T05:31:03.390Z,19.40
2022-08-18T05:32:03.393Z,13.40
2022-08-18T05:33:03.411Z,26.10
2022-08-18T05:34:04.174Z,27.00
2022-08-18T05:35:03.408Z,20.50
2022-08-18T05:36:03.397Z,18.10
2022-08-18T05:37:03.322Z,15.30
2022-08-18T05:38:04.344Z,19.00
2022-08-18T05:39:03.335Z,12.70
2022-08-18T05:40:07.478Z,14.70
2022-08-18T05:41:05.302Z,14.30
2022-08-18T05:42:03.391Z,12.20
2022-08-18T05:43:03.292Z,18.30
2022-08-18T05:44:03.285Z,11.50
2022-08-18T05:45:03.315Z,12.30
2022-08-18T05:46:03.303Z,13.00
2022-08-18T05:47:03.261Z,15.20
2022-08-18T05:48:03.260Z,16.30
2022-08-18T05:49:03.262Z,11.40
2022-08-18T05:50:03.251Z,10.60
2022-08-18T05:51:04.158Z,11.40
2022-08-18T05:52:03.227Z,11.40
2022-08-18T05:53:03.229Z,11.20
2022-08-18T05:54:03.231Z,15.60
2022-08-18T05:55:03.228Z,11.30
2022-08-18T05:56:03.207Z,10.20
2022-08-18T05:57:03.178Z,16.60
2022-08-18T05:58:03.201Z,11.70
2022-08-18T05:59:03.269Z,12.00
2022-08-18T06:00:03.261Z,13.20
2022-08-18T06:01:03.174Z,17.10
2022-08-18T06:02:03.145Z,11.80
2022-08-18T06:03:03.188Z,12.40
2022-08-18T06:04:03.141Z,11.40
2022-08-18T06:05:03.123Z,13.00
2022-08-18T06:06:03.113Z,10.20
2022-08-18T06:07:03.140Z,10.20
2022-08-18T06:08:03.103Z,13.20
2022-08-18T06:09:03.153Z,12.10
2022-08-18T06:10:03.093Z,10.40
2022-08-18T06:11:03.086Z,10.80
2022-08-18T06:12:03.090Z,10.70
2022-08-18T06:13:03.094Z,11.20
2022-08-18T06:14:03.077Z,13.00
2022-08-18T06:15:05.980Z,10.60
2022-08-18T06:16:03.051Z,10.90
2022-08-18T06:17:03.053Z,12.10
2022-08-18T06:18:03.681Z,11.00
2022-08-18T06:19:03.060Z,13.90
2022-08-18T06:20:03.035Z,12.20
2022-08-18T06:21:03.014Z,11.10
2022-08-18T06:22:03.012Z,10.20
2022-08-18T06:23:03.030Z,12.70
2022-08-18T06:24:03.006Z,13.90
2022-08-18T06:25:03.005Z,12.30
2022-08-18T06:26:02.991Z,13.20
2022-08-18T06:27:03.986Z,12.40
2022-08-18T06:28:02.977Z,12.40
2022-08-18T06:29:03.025Z,11.10
2022-08-18T06:30:02.963Z,10.90
2022-08-18T06:31:02.935Z,13.20
2022-08-18T06:32:02.967Z,13.80
2022-08-18T06:33:02.907Z,13.20
2022-08-18T06:34:02.918Z,11.20
2022-08-18T06:35:02.907Z,13.10
2022-08-18T06:36:02.884Z,12.50
2022-08-18T06:37:02.880Z,13.70
2022-08-18T06:38:02.883Z,14.10
2022-08-18T06:39:02.951Z,11.30
2022-08-18T06:40:02.932Z,10.30
2022-08-18T06:41:02.846Z,10.40
2022-08-18T06:42:02.849Z,11.90
2022-08-18T06:43:02.857Z,11.70
2022-08-18T06:44:02.850Z,12.30
2022-08-18T06:45:02.927Z,11.40
2022-08-18T06:46:02.833Z,12.90
2022-08-18T06:47:02.804Z,11.30
2022-08-18T06:48:02.821Z,13.00
2022-08-18T06:49:02.807Z,11.30
2022-08-18T06:50:02.804Z,10.10
2022-08-18T06:51:02.781Z,9.80
2022-08-18T06:52:02.787Z,12.10
2022-08-18T06:53:02.784Z,10.40
2022-08-18T06:54:02.758Z,11.70
2022-08-18T06:55:02.767Z,10.90
2022-08-18T06:56:02.778Z,13.10
2022-08-18T06:57:02.748Z,13.60
2022-08-18T06:58:02.722Z,14.20
2022-08-18T06:59:02.726Z,13.40
2022-08-18T07:00:02.744Z,11.40
2022-08-18T07:01:02.843Z,14.50
2022-08-18T07:02:02.719Z,11.90
2022-08-18T07:03:02.689Z,15.30
2022-08-18T07:04:02.699Z,13.20
2022-08-18T07:05:02.684Z,11.40
2022-08-18T07:06:02.686Z,12.80
2022-08-18T07:07:02.672Z,12.20
2022-08-18T07:08:02.648Z,13.10
2022-08-18T07:09:02.642Z,11.00
2022-08-18T07:10:03.650Z,13.10
2022-08-18T07:11:02.650Z,13.20
2022-08-18T07:12:02.639Z,12.30
2022-08-18T07:13:02.613Z,13.40
2022-08-18T07:14:16.195Z,12.30
2022-08-18T07:15:04.636Z,12.50
2022-08-18T07:16:02.603Z,12.40
2022-08-18T07:17:02.607Z,11.30
2022-08-18T07:18:02.582Z,11.20
2022-08-18T07:19:02.605Z,11.80
2022-08-18T07:20:02.594Z,10.30
2022-08-18T07:21:02.587Z,10.30
2022-08-18T07:22:02.544Z,11.30
2022-08-18T07:23:02.575Z,11.20
2022-08-18T07:24:23.731Z,11.10
2022-08-18T07:25:05.537Z,11.30
2022-08-18T07:26:03.527Z,10.90
2022-08-18T07:27:02.539Z,15.70
2022-08-18T07:28:02.518Z,20.00
2022-08-18T07:29:02.517Z,16.60
2022-08-18T07:30:02.491Z,22.30
2022-08-18T07:31:16.507Z,14.80
2022-08-18T07:32:04.481Z,15.90
2022-08-18T07:33:02.486Z,15.70
2022-08-18T07:34:02.474Z,16.10
2022-08-18T07:35:02.460Z,14.00
2022-08-18T07:36:02.445Z,14.30
2022-08-18T07:37:02.450Z,32.10
2022-08-18T07:38:18.671Z,12.00
2022-08-18T07:39:04.436Z,11.20
2022-08-18T07:40:02.563Z,13.20
2022-08-18T07:41:03.203Z,13.50
2022-08-18T07:42:02.569Z,13.80
2022-08-18T07:43:02.608Z,11.50
2022-08-18T07:44:03.385Z,15.60
2022-08-18T07:45:02.423Z,13.40
2022-08-18T07:46:02.450Z,12.30
2022-08-18T07:47:02.379Z,17.60
2022-08-18T07:48:20.834Z,13.50
2022-08-18T07:49:05.634Z,15.30
2022-08-18T07:50:36.374Z,15.20
2022-08-18T07:51:08.596Z,14.80
2022-08-18T07:52:03.363Z,14.50
2022-08-18T07:53:02.357Z,16.10
2022-08-18T07:54:02.333Z,14.10
2022-08-18T07:55:02.326Z,15.80
2022-08-18T07:56:02.339Z,24.00
2022-08-18T07:57:02.413Z,19.50
2022-08-18T07:58:02.283Z,20.30
2022-08-18T07:59:02.297Z,21.40
2022-08-18T08:00:02.277Z,18.80
2022-08-18T08:01:02.274Z,20.00
2022-08-18T08:02:02.348Z,18.00
2022-08-18T08:03:02.266Z,22.30
2022-08-18T08:04:02.251Z,17.80
2022-08-18T08:05:02.231Z,17.70
2022-08-18T08:06:02.245Z,16.80
2022-08-18T08:07:23.448Z,17.60
2022-08-18T08:08:04.217Z,20.50
2022-08-18T08:09:02.223Z,16.10
2022-08-18T08:10:02.193Z,15.50
2022-08-18T08:11:02.185Z,15.70
2022-08-18T08:12:02.185Z,12.90
2022-08-18T08:13:09.190Z,12.60
2022-08-18T08:14:04.169Z,14.30
2022-08-18T08:15:02.153Z,16.30
2022-08-18T08:16:02.146Z,17.70
2022-08-18T08:17:02.172Z,19.00
2022-08-18T08:18:02.158Z,18.60
2022-08-18T08:19:02.132Z,15.00
2022-08-18T08:20:03.137Z,16.80
2022-08-18T08:21:02.142Z,15.80
2022-08-18T08:22:02.117Z,16.40
2022-08-18T08:23:02.140Z,19.60
2022-08-18T08:24:02.142Z,15.50
2022-08-18T08:25:47.763Z,13.30
2022-08-18T08:26:03.103Z,15.70
2022-08-18T08:27:02.090Z,14.50
2022-08-18T08:28:02.079Z,16.50
2022-08-18T08:29:02.161Z,18.50
2022-08-18T08:30:02.698Z,16.70
2022-08-18T08:31:25.629Z,16.80
2022-08-18T08:32:04.755Z,17.90
2022-08-18T08:33:02.027Z,17.10
2022-08-18T08:34:05.829Z,17.20
2022-08-18T08:35:03.682Z,15.30
2022-08-18T08:36:02.011Z,20.10
2022-08-18T08:37:01.998Z,17.40
2022-08-18T08:38:17.152Z,14.30
2022-08-18T08:39:03.982Z,13.60
2022-08-18T08:40:02.123Z,18.30
2022-08-18T08:41:01.987Z,19.30
2022-08-18T08:42:30.319Z,21.00
2022-08-18T08:43:02.942Z,19.60
2022-08-18T08:44:01.946Z,20.60
2022-08-18T08:45:01.937Z,21.40
2022-08-18T08:46:02.021Z,22.30
2022-08-18T08:47:01.911Z,18.70
2022-08-18T08:48:08.804Z,22.60
2022-08-18T08:49:03.917Z,24.10
2022-08-18T08:50:01.905Z,20.40
2022-08-18T08:51:01.899Z,22.40
2022-08-18T08:52:01.895Z,22.10
2022-08-18T08:53:01.913Z,24.20
2022-08-18T08:54:01.893Z,26.80
2022-08-18T08:55:01.865Z,29.20
2022-08-18T08:56:02.789Z,29.10
2022-08-18T08:57:02.885Z,26.00
2022-08-18T08:58:01.879Z,24.40
2022-08-18T08:59:01.836Z,23.00
2022-08-18T09:00:01.820Z,27.10
2022-08-18T09:01:01.836Z,25.50
2022-08-18T09:02:01.889Z,26.80
2022-08-18T09:03:01.831Z,28.10
2022-08-18T09:04:01.840Z,29.60
2022-08-18T09:05:08.249Z,28.70
2022-08-18T09:06:02.842Z,28.60
2022-08-18T09:07:01.770Z,31.00
2022-08-18T09:08:01.765Z,28.10
2022-08-18T09:09:01.774Z,33.30
2022-08-18T09:10:01.784Z,30.10
2022-08-18T09:11:01.758Z,27.80
2022-08-18T09:12:01.930Z,33.30
2022-08-18T09:13:01.728Z,27.60
2022-08-18T09:14:01.751Z,30.60
2022-08-18T09:15:01.714Z,35.90
2022-08-18T09:16:01.756Z,34.20
2022-08-18T09:17:02.725Z,33.60
2022-08-18T09:18:01.708Z,32.10
2022-08-18T09:19:01.701Z,31.30
2022-08-18T09:20:01.709Z,36.40
2022-08-18T09:21:01.677Z,33.40
2022-08-18T09:22:01.698Z,35.80
2022-08-18T09:23:01.719Z,37.90
2022-08-18T09:24:01.656Z,40.00
2022-08-18T09:25:01.695Z,37.80
2022-08-18T09:26:01.678Z,42.00
2022-08-18T09:27:01.624Z,45.00
2022-08-18T09:28:14.800Z,36.90
2022-08-18T09:29:03.626Z,43.30
2022-08-18T09:30:01.624Z,44.50
2022-08-18T09:31:01.606Z,39.90
2022-08-18T09:32:01.631Z,40.00
2022-08-18T09:33:01.578Z,39.80
2022-08-18T09:34:06.676Z,47.50
2022-08-18T09:35:05.430Z,41.70
2022-08-18T09:36:01.621Z,44.40
2022-08-18T09:37:01.591Z,40.30
2022-08-18T09:38:01.534Z,39.60
2022-08-18T09:39:01.569Z,38.70
2022-08-18T09:40:11.271Z,42.30
2022-08-18T09:41:03.533Z,42.70
2022-08-18T09:43:02.782Z,45.80
2022-08-18T09:44:02.541Z,49.20
2022-08-18T09:45:01.532Z,46.30
2022-08-18T09:46:01.512Z,43.30
2022-08-18T09:47:01.538Z,53.00
2022-08-18T09:48:01.507Z,60.30
2022-08-18T09:49:01.472Z,52.80
2022-08-18T09:50:02.454Z,50.70
2022-08-18T09:51:01.498Z,51.40
2022-08-18T09:52:02.248Z,49.90
2022-08-18T09:53:04.397Z,50.40
2022-08-18T09:54:01.451Z,47.90
2022-08-18T09:55:01.469Z,43.90
2022-08-18T09:56:04.963Z,45.80
2022-08-18T09:57:02.501Z,44.70
2022-08-18T09:58:01.417Z,49.70
2022-08-18T09:59:01.384Z,48.70
2022-08-18T10:00:01.402Z,49.80
2022-08-18T10:01:01.460Z,49.10
2022-08-18T10:02:02.385Z,44.40
2022-08-18T10:03:01.350Z,41.80
2022-08-18T10:04:01.359Z,46.70
2022-08-18T10:05:01.375Z,44.30
2022-08-18T10:06:01.332Z,41.30
2022-08-18T10:07:01.333Z,40.40
2022-08-18T10:08:01.326Z,42.40
2022-08-18T10:09:01.311Z,42.30
2022-08-18T10:10:01.347Z,52.20
2022-08-18T10:11:08.976Z,40.90
2022-08-18T10:12:03.303Z,42.30
2022-08-18T10:13:01.278Z,42.80
2022-08-18T10:14:01.309Z,44.80
2022-08-18T10:15:01.319Z,44.10
2022-08-18T10:16:11.242Z,43.90
2022-08-18T10:17:23.580Z,45.90
2022-08-18T10:18:03.260Z,38.90
2022-08-18T10:19:01.282Z,41.60
2022-08-18T10:20:01.243Z,39.20
2022-08-18T10:21:01.235Z,40.50
2022-08-18T10:22:01.230Z,43.80
2022-08-18T10:23:01.290Z,49.50
2022-08-18T10:24:32.050Z,47.80
2022-08-18T10:25:21.302Z,48.00
2022-08-18T10:26:05.133Z,48.70
2022-08-18T10:27:03.219Z,46.30
2022-08-18T10:28:01.215Z,47.30
2022-08-18T10:29:01.233Z,53.00
2022-08-18T10:30:01.167Z,49.00
2022-08-18T10:31:06.256Z,52.40
2022-08-18T10:32:02.154Z,49.60
2022-08-18T10:33:05.009Z,46.80
2022-08-18T10:34:05.491Z,53.00
2022-08-18T10:35:02.194Z,49.60
2022-08-18T10:36:03.060Z,52.00
2022-08-18T10:37:01.122Z,56.60
2022-08-18T10:38:01.109Z,52.80
2022-08-18T10:39:01.111Z,51.20
2022-08-18T10:41:07.459Z,53.90
2022-08-18T10:42:02.080Z,53.70
2022-08-18T10:43:05.046Z,53.50
2022-08-18T10:44:04.968Z,53.90
2022-08-18T10:45:02.807Z,55.60
2022-08-18T10:47:03.064Z,48.20
2022-08-18T10:48:02.040Z,54.50
2022-08-18T10:49:01.029Z,58.50
2022-08-18T10:50:01.031Z,51.80
2022-08-18T10:51:01.019Z,51.60
2022-08-18T10:52:01.410Z,53.40
2022-08-18T10:53:24.165Z,48.00
2022-08-18T10:54:02.976Z,52.60
2022-08-18T10:55:00.965Z,51.80
2022-08-18T10:56:01.148Z,51.80
2022-08-18T10:57:00.990Z,51.90
2022-08-18T10:58:00.961Z,49.60
2022-08-18T10:59:00.959Z,51.60
2022-08-18T11:00:00.932Z,52.80
2022-08-18T11:01:00.919Z,47.20
2022-08-18T11:02:00.926Z,49.70
2022-08-18T11:03:08.067Z,51.00
2022-08-18T11:05:01.916Z,51.50
2022-08-18T11:06:00.902Z,50.70
2022-08-18T11:07:00.902Z,52.50
2022-08-18T11:08:00.874Z,47.40
2022-08-18T11:09:00.852Z,52.20
2022-08-18T11:10:28.336Z,51.70
2022-08-18T11:11:32.575Z,52.40
2022-08-18T11:12:02.881Z,56.50
2022-08-18T11:13:04.427Z,49.00
2022-08-18T11:14:01.822Z,51.30
2022-08-18T11:15:00.802Z,52.40
2022-08-18T11:16:01.801Z,54.70
2022-08-18T11:17:00.803Z,57.00
2022-08-18T11:18:00.786Z,53.20
2022-08-18T11:19:00.794Z,55.10
2022-08-18T11:20:00.790Z,50.80
2022-08-18T11:21:00.767Z,54.90
2022-08-18T11:22:00.870Z,52.80
2022-08-18T11:23:00.755Z,55.80
2022-08-18T11:24:01.766Z,59.60
2022-08-18T11:25:00.754Z,58.40
2022-08-18T11:26:00.721Z,57.90
2022-08-18T11:27:00.764Z,60.50
2022-08-18T11:28:00.789Z,60.30
2022-08-18T11:29:00.737Z,63.30
2022-08-18T11:30:00.733Z,58.60
2022-08-18T11:31:00.705Z,57.60
2022-08-18T11:32:01.954Z,58.70
2022-08-18T11:33:02.637Z,63.10
2022-08-18T11:34:00.735Z,63.70
2022-08-18T11:35:00.703Z,63.60
2022-08-18T11:36:01.453Z,65.60
2022-08-18T11:37:00.644Z,60.20
2022-08-18T11:38:00.665Z,68.40
2022-08-18T11:39:00.656Z,66.50
2022-08-18T11:40:00.791Z,66.40
2022-08-18T11:41:09.609Z,65.90
2022-08-18T11:42:02.704Z,68.90
2022-08-18T11:43:00.596Z,70.70
2022-08-18T11:44:00.613Z,62.20
2022-08-18T11:45:00.631Z,69.40
2022-08-18T11:46:00.578Z,69.70
2022-08-18T11:47:00.587Z,66.50
2022-08-18T11:48:00.562Z,62.70
2022-08-18T11:49:00.903Z,67.10
2022-08-18T11:51:01.553Z,69.40
2022-08-18T11:52:02.179Z,67.40
2022-08-18T11:53:00.568Z,69.00
2022-08-18T11:54:00.732Z,69.10
2022-08-18T11:55:00.537Z,67.10
2022-08-18T11:56:00.522Z,69.50
2022-08-18T11:57:00.492Z,69.90
2022-08-18T11:58:00.595Z,65.70
2022-08-18T11:59:00.505Z,69.10
2022-08-18T12:00:01.219Z,64.10
2022-08-18T12:01:03.222Z,63.50
2022-08-18T12:02:00.424Z,67.20
2022-08-18T12:03:00.429Z,67.90
2022-08-18T12:04:00.536Z,69.40
2022-08-18T12:05:02.862Z,63.60
2022-08-18T12:06:00.479Z,64.00
2022-08-18T12:07:00.410Z,69.70
2022-08-18T12:08:01.845Z,66.10
2022-08-18T12:09:01.441Z,66.00
2022-08-18T12:10:17.837Z,66.00
2022-08-18T12:11:02.377Z,66.70
2022-08-18T12:12:01.371Z,65.00
2022-08-18T12:13:01.149Z,68.00
2022-08-18T12:14:00.378Z,63.90
2022-08-18T12:15:13.977Z,64.90
2022-08-18T12:16:02.338Z,68.20
2022-08-18T12:17:01.504Z,66.80
2022-08-18T12:18:00.375Z,65.80
2022-08-18T12:19:00.320Z,66.50
2022-08-18T12:20:00.299Z,64.70
2022-08-18T12:22:01.604Z,60.50
2022-08-18T12:23:00.402Z,63.30
2022-08-18T12:24:00.298Z,59.30
2022-08-18T12:25:01.267Z,60.00
2022-08-18T12:26:00.350Z,60.70
2022-08-18T12:27:00.982Z,58.00
2022-08-18T12:28:00.254Z,59.50
2022-08-18T12:29:01.498Z,60.10
2022-08-18T12:30:00.234Z,65.10
2022-08-18T12:31:00.208Z,66.80
2022-08-18T12:32:00.223Z,62.80
2022-08-18T12:33:10.253Z,63.80
2022-08-18T12:34:01.493Z,62.30
2022-08-18T12:35:05.389Z,68.80
2022-08-18T12:36:02.177Z,67.10
2022-08-18T12:37:00.196Z,66.00
2022-08-18T12:38:04.995Z,65.10
2022-08-18T12:39:02.180Z,65.60
2022-08-18T12:40:00.239Z,64.40
2022-08-18T12:41:00.160Z,64.40
2022-08-18T12:42:00.174Z,62.10
2022-08-18T12:43:00.123Z,64.30
2022-08-18T12:44:00.123Z,69.30
2022-08-18T12:45:00.134Z,64.20
2022-08-18T12:46:00.111Z,65.30
2022-08-18T12:47:00.105Z,62.70
2022-08-18T12:48:00.114Z,62.50
2022-08-18T12:49:00.086Z,64.10
2022-08-18T12:50:00.070Z,68.00
2022-08-18T12:51:00.951Z,63.00
2022-08-18T12:52:03.383Z,66.70
2022-08-18T12:53:00.134Z,68.40
2022-08-18T12:54:00.519Z,65.70
2022-08-18T12:55:00.067Z,66.60
2022-08-18T12:56:00.041Z,64.50
2022-08-18T12:57:00.046Z,71.20
2022-08-18T12:58:00.033Z,66.50
2022-08-18T12:59:00.038Z,68.60
2022-08-18T13:00:00.018Z,66.90
2022-08-18T13:01:00.025Z,69.90
2022-08-18T13:02:00.646Z,69.30
2022-08-18T13:03:00.006Z,68.50
2022-08-18T13:04:13.239Z,64.10
2022-08-18T13:05:01.159Z,67.50
2022-08-18T13:05:59.993Z,68.50
2022-08-18T13:07:01.998Z,66.00
2022-08-18T13:08:04.626Z,68.00
2022-08-18T13:08:59.966Z,66.30
2022-08-18T13:09:59.971Z,68.40
2022-08-18T13:10:59.969Z,67.90
2022-08-18T13:12:00.949Z,66.90
2022-08-18T13:12:59.914Z,74.80
2022-08-18T13:13:59.954Z,70.80
2022-08-18T13:14:59.936Z,69.60
2022-08-18T13:16:03.361Z,73.90
2022-08-18T13:16:59.921Z,79.80
2022-08-18T13:17:59.925Z,73.90
2022-08-18T13:18:59.896Z,73.00
2022-08-18T13:20:00.571Z,72.10
2022-08-18T13:20:59.907Z,73.30
2022-08-18T13:21:59.862Z,75.20
2022-08-18T13:22:59.865Z,75.40
2022-08-18T13:23:59.863Z,73.80
2022-08-18T13:24:59.848Z,75.90
2022-08-18T13:26:02.089Z,75.20
2022-08-18T13:26:59.834Z,73.10
2022-08-18T13:28:00.018Z,78.00
2022-08-18T13:28:59.813Z,77.90
2022-08-18T13:29:59.876Z,79.20
2022-08-18T13:30:59.792Z,73.00
2022-08-18T13:31:59.794Z,79.60
2022-08-18T13:33:05.474Z,74.90
2022-08-18T13:34:03.969Z,79.00
2022-08-18T13:34:59.789Z,80.00